createdAt,value
2022-09-17T00:01:21.915Z,97103.26161051604
2022-09-17T00:04:19.869Z,97101.64401137031
2022-09-17T00:07:19.651Z,97096.7206755842
2022-09-17T00:11:18.207Z,97084.50992240658
2022-09-17T00:14:17.265Z,97075.89049016303
2022-09-17T00:17:16.188Z,97067.4917094248
2022-09-17T00:21:19.089Z,97064.557750323
2022-09-17T00:24:17.901Z,97060.90833840544
2022-09-17T00:27:16.816Z,97059.02376226611
2022-09-17T00:31:16.728Z,97044.6314722158
2022-09-17T00:34:16.413Z,97045.71601654512
2022-09-17T00:37:16.659Z,97042.63228698356
2022-09-17T00:41:17.732Z,97055.58295889922
2022-09-17T00:44:52.409Z,97058.5523139989
2022-09-17T00:47:22.665Z,97057.81246729665
2022-09-17T00:51:24.479Z,97062.51298343632
2022-09-17T00:54:17.415Z,97057.31417372308
2022-09-17T00:57:17.061Z,97051.11046359097
2022-09-17T01:01:17.275Z,97053.02789709547
2022-09-17T01:04:17.790Z,97049.48276383139
2022-09-17T01:07:30.956Z,97056.42426562253
2022-09-17T01:11:33.203Z,97053.39639822484
2022-09-17T01:14:27.651Z,97056.74478215043
2022-09-17T01:17:24.685Z,97045.72978670795
2022-09-17T01:21:32.472Z,97048.87908053078
2022-09-17T01:25:19.853Z,97043.29806539029
2022-09-17T01:31:34.766Z,97036.35905857477
2022-09-17T01:34:24.820Z,97041.39053993268
2022-09-17T01:37:28.906Z,97034.7720908498
2022-09-17T01:41:26.180Z,97051.46816391763
2022-09-17T01:44:22.599Z,97038.41731223943
2022-09-17T01:47:22.786Z,97041.15013138164
2022-09-17T01:51:22.020Z,97028.0460332931
2022-09-17T01:54:23.304Z,97035.10023470414
2022-09-17T01:57:22.523Z,97025.57732981711
2022-09-17T02:01:22.197Z,97018.2824967718
2022-09-17T02:04:23.839Z,97016.05592949777
2022-09-17T02:07:24.085Z,97013.4158232867
2022-09-17T02:11:18.769Z,97003.74775970085
2022-09-17T02:14:21.657Z,97000.55580089611
2022-09-17T02:17:28.023Z,97001.54328658919
2022-09-17T02:21:21.708Z,96989.83596278189
2022-09-17T02:24:23.565Z,96981.4991178883
2022-09-17T02:27:23.863Z,96979.1334229054
2022-09-17T02:31:16.171Z,96972.5176289971
2022-09-17T02:34:15.988Z,96963.79288572907
2022-09-17T02:37:16.052Z,96962.22077189841
2022-09-17T02:41:20.930Z,96948.41487908387
2022-09-17T02:44:25.350Z,96943.13873119498
2022-09-17T02:47:33.866Z,96935.21739482551
2022-09-17T02:51:30.362Z,96924.65056979685
2022-09-17T02:54:23.731Z,96916.33311349219
2022-09-17T02:57:22.970Z,96903.6194668993
2022-09-17T03:01:23.331Z,96897.91769954868
2022-09-17T03:04:20.441Z,96900.56265174707
2022-09-17T03:07:18.997Z,96904.14145118084
2022-09-17T03:11:16.695Z,96904.33560234985
2022-09-17T03:14:16.667Z,96893.98913314538
2022-09-17T03:17:16.671Z,96889.65552411538
2022-09-17T03:21:15.996Z,96884.02386441805
2022-09-17T03:24:16.279Z,96881.27018173238
2022-09-17T03:27:16.459Z,96875.26522752462
2022-09-17T03:31:16.500Z,96881.32427310057
2022-09-17T03:34:16.320Z,96876.84444984523
2022-09-17T03:37:16.897Z,96877.15557617992
2022-09-17T03:41:16.151Z,96882.61480405266
2022-09-17T03:44:18.620Z,96876.01927668026
2022-09-17T03:47:17.515Z,96870.17022034066
2022-09-17T03:51:16.441Z,96868.05408070919
2022-09-17T03:54:17.903Z,96862.11159824842
2022-09-17T03:57:17.328Z,96855.30575807151
2022-09-17T04:01:16.215Z,96855.06544307354
2022-09-17T04:04:17.071Z,96853.89152767525
2022-09-17T04:07:16.853Z,96855.67060674854
2022-09-17T04:11:16.791Z,96847.9567165333
2022-09-17T04:14:16.525Z,96851.60448725829
2022-09-17T04:17:20.269Z,96848.02699681335
2022-09-17T04:21:16.587Z,96837.70758767518
2022-09-17T04:24:16.553Z,96831.74327702532
2022-09-17T04:27:16.792Z,96830.9066134982
2022-09-17T04:31:16.751Z,96838.73051027016
2022-09-17T04:34:16.743Z,96833.10007911477
2022-09-17T04:37:17.508Z,96831.6442377529
2022-09-17T04:41:15.791Z,96835.128581955
2022-09-17T04:44:16.293Z,96834.01474839481
2022-09-17T04:47:16.330Z,96834.75632604492
2022-09-17T04:51:16.163Z,96820.7943756056
2022-09-17T04:54:16.878Z,96825.2799701886
2022-09-17T04:57:16.728Z,96826.61697680962
2022-09-17T05:01:19.232Z,96824.49822128056
2022-09-17T05:04:16.461Z,96830.37445110704
2022-09-17T05:07:16.200Z,96839.61680887741
2022-09-17T05:11:16.562Z,96842.04828323786
2022-09-17T05:14:16.865Z,96849.06883662532
2022-09-17T05:17:17.191Z,96844.58260354669
2022-09-17T05:21:16.180Z,96853.72297819113
2022-09-17T05:24:16.854Z,96842.74614356975
2022-09-17T05:27:16.597Z,96846.75051962899
2022-09-17T05:31:17.073Z,96854.46083701799
2022-09-17T05:34:16.771Z,96844.77462861162
2022-09-17T05:37:17.183Z,96851.5067200362
2022-09-17T05:41:16.787Z,96849.52653295659
2022-09-17T05:44:18.181Z,96849.47725093538
2022-09-17T05:47:17.353Z,96855.41772206167
2022-09-17T05:51:17.025Z,96837.63903688002
2022-09-17T05:54:17.021Z,96844.17541022367
2022-09-17T05:57:17.072Z,96829.86078939302
2022-09-17T06:01:17.178Z,96826.70651629611
2022-09-17T06:04:18.130Z,96826.66189190299
2022-09-17T06:07:17.131Z,96827.54672791292
2022-09-17T06:11:16.391Z,96828.54422569009
2022-09-17T06:14:16.916Z,96826.29881277104
2022-09-17T06:17:21.519Z,96832.00498528259
2022-09-17T06:21:17.729Z,96829.54647081002
2022-09-17T06:24:16.669Z,96832.31599382866
2022-09-17T06:27:16.770Z,96837.89955241543
2022-09-17T06:31:15.632Z,96827.82901763785
2022-09-17T06:34:16.938Z,96822.55698023202
2022-09-17T06:37:20.576Z,96824.58215539165
2022-09-17T06:41:17.340Z,96827.84609642753
2022-09-17T06:44:17.022Z,96820.06756855366
2022-09-17T06:47:17.609Z,96815.12666794415
2022-09-17T06:51:16.477Z,96813.52612402487
2022-09-17T06:54:16.677Z,96810.58765842728
2022-09-17T06:57:17.570Z,96814.76420347509
2022-09-17T07:01:16.773Z,96808.01681807233
2022-09-17T07:04:18.917Z,96813.69315638948
2022-09-17T07:07:17.423Z,96806.47911289251
2022-09-17T07:11:16.500Z,96811.10557162152
2022-09-17T07:14:16.579Z,96807.25785983549
2022-09-17T07:17:16.609Z,96800.21393190477
2022-09-17T07:21:16.811Z,96805.22074303991
2022-09-17T07:24:16.508Z,96810.62375006246
2022-09-17T07:27:16.732Z,96801.27422984745
2022-09-17T07:31:23.872Z,96800.58436876193
2022-09-17T07:34:20.050Z,96802.67172773312
2022-09-17T07:37:18.800Z,96805.865678238
2022-09-17T07:41:17.522Z,96802.31167452048
2022-09-17T07:44:16.871Z,96794.75872904879
2022-09-17T07:47:16.830Z,96783.55301358056
2022-09-17T07:51:18.525Z,96791.07920188275
2022-09-17T07:54:17.281Z,96780.39816599608
2022-09-17T07:57:16.871Z,96778.24685268119
2022-09-17T08:01:18.383Z,96777.01461237825
2022-09-17T08:04:17.623Z,96790.33655969788
2022-09-17T08:07:16.722Z,96799.56840597537
2022-09-17T08:11:38.228Z,96804.1975923827
2022-09-17T08:14:16.946Z,96794.71298883505
2022-09-17T08:17:16.878Z,96793.9496594986
2022-09-17T08:21:17.142Z,96787.74939773313
2022-09-17T08:24:16.320Z,96783.75634630852
2022-09-17T08:27:16.349Z,96774.59823887
2022-09-17T08:31:18.215Z,96773.18809816669
2022-09-17T08:34:16.163Z,96767.68950725911
2022-09-17T08:37:16.374Z,96774.24107315743
2022-09-17T08:41:26.078Z,96761.75178699766
2022-09-17T08:44:23.917Z,96756.35711956059
2022-09-17T08:47:24.110Z,96764.75492812633
2022-09-17T08:51:31.463Z,96762.05875694109
2022-09-17T08:54:25.649Z,96765.71455219339
2022-09-17T08:57:25.407Z,96765.41450750864
2022-09-17T09:01:32.962Z,96767.46342124666
2022-09-17T09:05:24.551Z,96770.36907148719
2022-09-17T09:07:22.993Z,96754.29204970704
2022-09-17T09:11:22.926Z,96744.84291655224
2022-09-17T09:14:21.987Z,96760.65891919442
2022-09-17T09:17:19.910Z,96745.17042632854
2022-09-17T09:21:26.227Z,96750.00717559419
2022-09-17T09:24:23.786Z,96744.69952419962
2022-09-17T09:27:25.435Z,96754.65538130201
2022-09-17T09:31:33.547Z,96740.75787140317
2022-09-17T09:34:16.905Z,96767.50481831614
2022-09-17T09:37:23.390Z,96760.30619359214
2022-09-17T09:41:25.673Z,96775.33415399997
2022-09-17T09:44:17.091Z,96759.84833877628
2022-09-17T09:47:34.074Z,96764.81674678093
2022-09-17T09:51:31.491Z,96767.80768403775
2022-09-17T09:54:34.800Z,96763.98956840883
2022-09-17T09:57:21.675Z,96750.77690098253
2022-09-17T10:01:17.944Z,96750.23222621415
2022-09-17T10:04:19.711Z,96747.6925447715
2022-09-17T10:07:16.404Z,96743.87673865727
2022-09-17T10:11:21.952Z,96745.58631550142
2022-09-17T10:14:24.132Z,96735.0000428118
2022-09-17T10:17:20.651Z,96742.37902047159
2022-09-17T10:21:22.248Z,96749.23014209686
2022-09-17T10:24:23.805Z,96748.18616748069
2022-09-17T10:27:20.906Z,96756.57909435447
2022-09-17T10:31:17.617Z,96753.93287626083
2022-09-17T10:34:21.240Z,96751.65837523765
2022-09-17T10:37:35.676Z,96743.52008247684
2022-09-17T10:41:19.059Z,96753.74470268509
2022-09-17T10:44:17.539Z,96763.29211888333
2022-09-17T10:47:21.247Z,96758.60796680991
2022-09-17T10:51:41.027Z,96770.36217670397
2022-09-17T10:54:47.010Z,96767.14962669896
2022-09-17T10:57:40.089Z,96775.74354445614
2022-09-17T11:01:38.150Z,96768.7650094132
2022-09-17T11:04:29.638Z,96780.86361320845
2022-09-17T11:07:33.294Z,96770.3514405532
2022-09-17T11:11:30.488Z,96774.88585473987
2022-09-17T11:14:35.567Z,96780.29202274057
2022-09-17T11:17:34.375Z,96770.61806282627
2022-09-17T11:21:35.210Z,96762.07607058366
2022-09-17T11:24:33.452Z,96763.97887824844
2022-09-17T11:27:33.352Z,96746.39610008377
2022-09-17T11:31:27.601Z,96752.63525390462
2022-09-17T11:34:27.053Z,96745.97437019643
2022-09-17T11:37:22.824Z,96743.08773030917
2022-09-17T11:41:19.762Z,96744.11674575841
2022-09-17T11:44:23.597Z,96734.77834675391
2022-09-17T11:47:21.478Z,96744.91507812185
2022-09-17T11:51:29.900Z,96747.08643097921
2022-09-17T11:54:28.971Z,96746.38510943312
2022-09-17T11:57:29.678Z,96737.97053907676
2022-09-17T12:01:28.459Z,96741.19263829314
2022-09-17T12:04:31.819Z,96736.80772962408
2022-09-17T12:07:28.158Z,96737.73667987449
2022-09-17T12:11:19.352Z,96720.2663589543
2022-09-17T12:14:22.914Z,96717.61943220328
2022-09-17T12:17:24.103Z,96715.61539619851
2022-09-17T12:21:21.455Z,96727.00353013759
2022-09-17T12:24:22.504Z,96729.20456326182
2022-09-17T12:27:31.815Z,96731.66098281578
2022-09-17T12:31:26.140Z,96728.50841730785
2022-09-17T12:34:33.508Z,96713.6908203824
2022-09-17T12:37:26.146Z,96717.97128349169
2022-09-17T12:41:20.726Z,96715.96835756983
2022-09-17T12:44:33.186Z,96705.05561931677
2022-09-17T12:47:38.582Z,96704.48462697542
2022-09-17T12:51:36.924Z,96696.47500267859
2022-09-17T12:54:32.093Z,96697.9065826024
2022-09-17T12:57:29.419Z,96691.10734358213
2022-09-17T13:01:23.570Z,96733.6582481478
2022-09-17T13:04:56.845Z,96698.52905590653
2022-09-17T13:07:47.563Z,96730.15753896112
2022-09-17T13:11:43.217Z,96745.18776305794
2022-09-17T13:14:24.546Z,96755.5863562381
2022-09-17T13:17:23.743Z,96762.63229436871
2022-09-17T13:21:23.305Z,96782.37855556485
2022-09-17T13:24:18.618Z,96798.56292828605
2022-09-17T13:27:22.071Z,96823.64217730265
2022-09-17T13:31:21.265Z,96843.79735739718
2022-09-17T14:11:36.690Z,96942.81742969649
2022-09-17T14:14:45.591Z,96952.64387176537
2022-09-17T14:17:49.604Z,96957.55643538496
2022-09-17T14:21:25.957Z,96969.82186871994
2022-09-17T14:24:22.796Z,96963.98288391616
2022-09-17T14:27:46.103Z,96974.54533271013
2022-09-17T14:31:21.381Z,96979.18292277187
2022-09-17T14:34:21.366Z,96992.42205840278
2022-09-17T14:37:21.035Z,96992.11224691223
2022-09-17T14:41:23.438Z,96989.64684981467
2022-09-17T14:44:25.310Z,96990.96060857126
2022-09-17T14:47:20.485Z,96989.34935286293
2022-09-17T14:51:27.458Z,97005.580083269
2022-09-17T14:54:19.715Z,97000.86527026584
2022-09-17T14:57:26.997Z,97011.4888652318
2022-09-17T15:01:23.311Z,97008.3476861165
2022-09-17T15:04:21.773Z,97018.01161114329
2022-09-17T15:07:19.432Z,97022.414514351
2022-09-17T15:11:19.996Z,97023.43163098245
2022-09-17T15:14:20.737Z,97018.74869758172
2022-09-17T15:17:18.296Z,97022.96198186095
2022-09-17T15:21:28.910Z,97033.64959512028
2022-09-17T15:24:25.850Z,97046.50982544555
2022-09-17T15:27:22.939Z,97046.33595414055
2022-09-17T15:31:19.593Z,97040.90106916992
2022-09-17T15:34:16.836Z,97041.90226089922
2022-09-17T15:37:19.097Z,97043.07113766948
2022-09-17T15:41:26.311Z,97038.77952070542
2022-09-17T15:44:30.270Z,97033.6439420105
2022-09-17T15:47:52.325Z,97028.6552939564
2022-09-17T15:51:23.359Z,97028.51095226394
2022-09-17T15:54:30.174Z,97035.11731586175
2022-09-17T15:57:17.352Z,97032.52614136599
2022-09-17T16:11:17.155Z,97054.11370161298
2022-09-17T16:14:17.142Z,97062.64040913581
2022-09-17T16:17:43.729Z,97063.19281419687
2022-09-17T16:21:17.594Z,97087.11999093
2022-09-17T16:24:16.219Z,97091.40594071575
2022-09-17T16:27:20.397Z,97091.52715028115
2022-09-17T16:31:16.901Z,97106.58070914603
2022-09-17T16:34:16.868Z,97112.99086691416
2022-09-17T16:37:16.848Z,97116.34216801712
2022-09-17T16:41:16.726Z,97120.8664654828
2022-09-17T16:44:17.652Z,97120.06326770506
2022-09-17T16:47:16.981Z,97122.41958009858
2022-09-17T16:51:21.076Z,97129.51922061898
2022-09-17T16:54:21.404Z,97131.71913470574
2022-09-17T16:57:21.668Z,97141.3042745107
2022-09-17T17:01:16.096Z,97146.48574611374
2022-09-17T17:04:16.633Z,97151.33465123393
2022-09-17T17:07:16.174Z,97153.47182645337
2022-09-17T17:11:15.836Z,97158.16084452627
2022-09-17T17:14:16.331Z,97163.27985888024
2022-09-17T17:17:16.361Z,97171.19569077724
2022-09-17T17:21:15.933Z,97174.83869952937
2022-09-17T17:24:16.174Z,97181.91848326237
2022-09-17T17:27:16.164Z,97187.73207219038
2022-09-17T17:31:15.965Z,97193.86050202645
2022-09-17T17:34:16.357Z,97201.04816626519
2022-09-17T17:37:17.290Z,97207.5444885296
2022-09-17T17:41:18.828Z,97220.92413368417
2022-09-17T17:44:17.355Z,97230.9643636744
2022-09-17T17:47:16.724Z,97241.56227163474
2022-09-17T17:51:18.898Z,97256.05476442412
2022-09-17T17:54:18.118Z,97261.8822972081
2022-09-17T17:57:16.792Z,97268.03692718795
2022-09-17T18:01:19.703Z,97278.3532622917
2022-09-17T18:04:16.262Z,97281.64795044303
2022-09-17T18:07:16.093Z,97289.82270428105
2022-09-17T18:11:15.752Z,97303.80558500187
2022-09-17T18:14:16.538Z,97305.82050015262
2022-09-17T18:17:16.276Z,97306.47873467131
2022-09-17T18:21:18.331Z,97317.14287041963
2022-09-17T18:24:16.312Z,97321.69429622978
2022-09-17T18:27:16.507Z,97322.55494975924
2022-09-17T18:31:21.072Z,97333.86476491485
2022-09-17T18:34:16.840Z,97339.36277633408
2022-09-17T18:37:16.715Z,97339.58537603682
2022-09-17T18:41:16.052Z,97354.16223886111
2022-09-17T18:44:19.179Z,97359.30700165291
2022-09-17T18:47:18.181Z,97371.41000728168
2022-09-17T18:51:17.317Z,97369.32613978705
2022-09-17T18:54:17.149Z,97381.50197272506
2022-09-17T18:57:17.343Z,97377.88183338768
2022-09-17T19:01:20.779Z,97382.30259018338
2022-09-17T19:04:19.199Z,97393.00557881156
2022-09-17T19:07:18.633Z,97396.00121719802
2022-09-17T19:11:17.407Z,97397.25142475612
2022-09-17T19:14:17.280Z,97404.93487594932
2022-09-17T19:17:17.743Z,97407.21997340719
2022-09-17T19:21:18.119Z,97411.12775674295
2022-09-17T19:24:17.141Z,97412.68691470391
2022-09-17T19:27:17.198Z,97413.30676460876
2022-09-17T19:31:16.917Z,97420.28723692581
2022-09-17T19:34:17.023Z,97418.04302080903
2022-09-17T19:37:18.217Z,97422.79095862093
2022-09-17T19:41:19.045Z,97424.4988887283
2022-09-17T19:44:16.589Z,97436.57629941199
2022-09-17T19:47:16.430Z,97436.28303430554
2022-09-17T19:51:18.007Z,97448.04756681935
2022-09-17T19:54:16.764Z,97453.0967582981
2022-09-17T19:57:19.784Z,97457.20269228422
2022-09-17T20:01:17.343Z,97456.2161738146
2022-09-17T20:04:18.731Z,97461.043050006
2022-09-17T20:07:17.467Z,97464.0522466287
2022-09-17T20:11:17.590Z,97465.1406607489
2022-09-17T20:14:18.427Z,97472.23632163236
2022-09-17T20:17:16.664Z,97476.22533229362
2022-09-17T20:21:19.928Z,97490.16187003106
2022-09-17T20:24:17.013Z,97480.06317446112
2022-09-17T20:27:17.856Z,97484.17782671616
2022-09-17T20:31:18.650Z,97496.89805292636
2022-09-17T20:34:17.135Z,97496.54644524684
2022-09-17T20:37:24.903Z,97498.64135912152
2022-09-17T20:41:19.981Z,97495.42548538426
2022-09-17T20:44:19.027Z,97496.98017890452
2022-09-17T20:47:19.539Z,97504.93344425809
2022-09-17T20:51:19.432Z,97514.13132874666
2022-09-17T20:54:17.225Z,97524.14011486214
2022-09-17T20:57:17.303Z,97521.4190662893
2022-09-17T21:01:23.603Z,97527.02677932232
2022-09-17T21:04:20.280Z,97537.12652734284
2022-09-17T21:07:17.882Z,97536.80088931581
2022-09-17T21:11:18.312Z,97536.8874363189
2022-09-17T21:14:18.669Z,97544.73016309562
2022-09-17T21:17:16.748Z,97545.33739752967
2022-09-17T21:21:17.429Z,97557.62026371936
2022-09-17T21:24:17.010Z,97561.51407947845
2022-09-17T21:27:16.718Z,97565.13656134151
2022-09-17T21:31:17.813Z,97570.19472218875
2022-09-17T21:34:18.478Z,97557.07951655882
2022-09-17T21:37:16.624Z,97549.92398435046
2022-09-17T21:41:15.996Z,97552.98771772499
2022-09-17T21:44:16.462Z,97554.47231078509
2022-09-17T21:47:17.037Z,97549.58680620314
2022-09-17T21:51:18.105Z,97551.9975362878
2022-09-17T21:54:17.501Z,97545.66010205381
2022-09-17T21:57:16.724Z,97549.1146389659
2022-09-17T22:01:19.577Z,97538.95406488123
2022-09-17T22:04:17.782Z,97536.55127171436
2022-09-17T22:07:16.600Z,97529.8377651228
2022-09-17T22:11:18.686Z,97525.91446915125
2022-09-17T22:14:22.181Z,97522.53917828131
2022-09-17T22:17:17.195Z,97537.08414767885
2022-09-17T22:21:18.358Z,97538.09324454928
2022-09-17T22:24:17.549Z,97547.9996904264
2022-09-17T22:27:16.161Z,97557.64291658463
2022-09-17T22:31:19.507Z,97560.20007400487
2022-09-17T22:34:21.642Z,97571.04073948211
2022-09-17T22:37:18.893Z,97569.98454556619
2022-09-17T22:41:17.663Z,97577.33171570904
2022-09-17T22:44:18.698Z,97573.637785352
2022-09-17T22:47:16.538Z,97569.59284891811
2022-09-17T22:51:16.281Z,97571.98153250654
2022-09-17T22:54:18.065Z,97570.06345542918
2022-09-17T22:57:16.244Z,97574.98531771303
2022-09-17T23:01:18.425Z,97589.03571557206
2022-09-17T23:04:16.846Z,97587.3437832576
2022-09-17T23:07:16.750Z,97593.93031850165
2022-09-17T23:11:18.857Z,97598.73242862882
2022-09-17T23:14:17.164Z,97604.8936676057
2022-09-17T23:17:16.757Z,97602.70777085557
2022-09-17T23:21:18.615Z,97600.78384057982
2022-09-17T23:24:19.144Z,97605.28938466054
2022-09-17T23:27:17.399Z,97600.35571180655
2022-09-17T23:31:18.420Z,97601.14044122431
2022-09-17T23:34:17.163Z,97608.74433104845
2022-09-17T23:37:19.896Z,97613.64290498455
2022-09-17T23:41:20.279Z,97619.28569366335
2022-09-17T23:44:16.531Z,97628.3890937755
2022-09-17T23:47:16.898Z,97628.47627253002
2022-09-17T23:51:16.706Z,97631.43782612815
2022-09-17T23:54:16.370Z,97634.55659108814
2022-09-17T23:57:16.266Z,97632.91551089895
